Botosani, Romania
Current Conditions -  °F | °C
As of 11:30 PM on Wednesday 26 Nov 2014 (Local Time) from LUBL Reporting Station
NA  
Wind Chill: 19°   Ceiling: NA
Heat Index: 25°   Visibility: 6mi
Dew Point: 21°   Wind: 5mph
Humidity: 86%   Direction: 330°NNW
Pressure: 30.3"   Gusts: NA
Location:  47.75°N, 26.67°E
Report Text: LUBL 262030Z AUTO 33004KT 9999 ///013 M04/M06 Q1026
Loading
Personal Weather Stations






























Interactive Weather Map New forecast layout! Learn more

10-Day Weather Forecast

Advertisements
Track Severe Weather on mobile